sensor_id;sensor_type;location;lat;lon;timestamp;temperature;humidity
5459;DHT22;2752;49.992;8.422;2022-12-07T00:01:48;4.80;21.60
5459;DHT22;2752;49.992;8.422;2022-12-07T00:04:17;4.70;21.60
5459;DHT22;2752;49.992;8.422;2022-12-07T00:06:46;4.70;22.60
5459;DHT22;2752;49.992;8.422;2022-12-07T00:09:14;4.60;23.40
5459;DHT22;2752;49.992;8.422;2022-12-07T00:11:42;4.70;27.60
5459;DHT22;2752;49.992;8.422;2022-12-07T00:14:12;4.70;24.20
5459;DHT22;2752;49.992;8.422;2022-12-07T00:16:39;4.70;25.10
5459;DHT22;2752;49.992;8.422;2022-12-07T00:19:06;4.60;27.30
5459;DHT22;2752;49.992;8.422;2022-12-07T00:21:35;4.60;29.10
5459;DHT22;2752;49.992;8.422;2022-12-07T00:24:04;4.60;30.60
5459;DHT22;2752;49.992;8.422;2022-12-07T00:26:33;4.60;31.10
5459;DHT22;2752;49.992;8.422;2022-12-07T00:29:02;4.60;32.20
5459;DHT22;2752;49.992;8.422;2022-12-07T00:31:31;4.60;30.70
5459;DHT22;2752;49.992;8.422;2022-12-07T00:34:01;4.60;30.20
5459;DHT22;2752;49.992;8.422;2022-12-07T00:36:28;4.60;30.90
5459;DHT22;2752;49.992;8.422;2022-12-07T00:38:58;4.60;32.10
5459;DHT22;2752;49.992;8.422;2022-12-07T00:41:26;4.50;33.30
5459;DHT22;2752;49.992;8.422;2022-12-07T00:43:53;4.50;34.40
5459;DHT22;2752;49.992;8.422;2022-12-07T00:46:22;4.50;35.50
5459;DHT22;2752;49.992;8.422;2022-12-07T00:48:49;4.40;36.10
5459;DHT22;2752;49.992;8.422;2022-12-07T00:51:18;4.40;37.10
5459;DHT22;2752;49.992;8.422;2022-12-07T00:53:46;4.40;38.50
5459;DHT22;2752;49.992;8.422;2022-12-07T00:56:16;4.30;37.30
5459;DHT22;2752;49.992;8.422;2022-12-07T00:58:44;4.30;38.00
5459;DHT22;2752;49.992;8.422;2022-12-07T01:01:10;4.30;38.80
5459;DHT22;2752;49.992;8.422;2022-12-07T01:03:38;4.30;41.20
5459;DHT22;2752;49.992;8.422;2022-12-07T01:06:05;4.30;42.40
5459;DHT22;2752;49.992;8.422;2022-12-07T01:08:32;4.40;44.10
5459;DHT22;2752;49.992;8.422;2022-12-07T01:11:00;4.50;33.80
5459;DHT22;2752;49.992;8.422;2022-12-07T01:13:29;4.60;28.40
5459;DHT22;2752;49.992;8.422;2022-12-07T01:15:57;4.60;21.00
5459;DHT22;2752;49.992;8.422;2022-12-07T01:18:25;4.60;17.70
5459;DHT22;2752;49.992;8.422;2022-12-07T01:21:00;4.60;16.90
5459;DHT22;2752;49.992;8.422;2022-12-07T01:23:27;4.50;18.20
5459;DHT22;2752;49.992;8.422;2022-12-07T01:25:55;4.50;17.70
5459;DHT22;2752;49.992;8.422;2022-12-07T01:28:22;4.50;19.60
5459;DHT22;2752;49.992;8.422;2022-12-07T01:31:00;4.40;19.20
5459;DHT22;2752;49.992;8.422;2022-12-07T01:33:27;4.40;21.20
5459;DHT22;2752;49.992;8.422;2022-12-07T01:38:22;4.20;28.10
5459;DHT22;2752;49.992;8.422;2022-12-07T01:40:54;4.20;32.10
5459;DHT22;2752;49.992;8.422;2022-12-07T01:43:21;4.20;34.60
5459;DHT22;2752;49.992;8.422;2022-12-07T01:45:49;4.30;31.90
5459;DHT22;2752;49.992;8.422;2022-12-07T01:48:19;4.30;30.40
5459;DHT22;2752;49.992;8.422;2022-12-07T01:50:48;4.30;31.10
5459;DHT22;2752;49.992;8.422;2022-12-07T01:53:17;4.30;31.70
5459;DHT22;2752;49.992;8.422;2022-12-07T01:55:46;4.20;32.50
5459;DHT22;2752;49.992;8.422;2022-12-07T01:58:14;4.30;33.20
5459;DHT22;2752;49.992;8.422;2022-12-07T02:00:42;4.30;32.40
5459;DHT22;2752;49.992;8.422;2022-12-07T02:03:13;4.30;29.80
5459;DHT22;2752;49.992;8.422;2022-12-07T02:05:43;4.30;28.50
5459;DHT22;2752;49.992;8.422;2022-12-07T02:08:11;4.30;29.10
5459;DHT22;2752;49.992;8.422;2022-12-07T02:10:38;4.30;29.70
5459;DHT22;2752;49.992;8.422;2022-12-07T02:13:08;4.30;30.70
5459;DHT22;2752;49.992;8.422;2022-12-07T02:15:45;4.30;28.50
5459;DHT22;2752;49.992;8.422;2022-12-07T02:18:17;4.30;30.10
5459;DHT22;2752;49.992;8.422;2022-12-07T02:23:52;4.40;26.50
5459;DHT22;2752;49.992;8.422;2022-12-07T02:29:35;4.40;24.50
5459;DHT22;2752;49.992;8.422;2022-12-07T02:32:09;4.40;24.10
5459;DHT22;2752;49.992;8.422;2022-12-07T02:34:44;4.40;25.10
5459;DHT22;2752;49.992;8.422;2022-12-07T02:37:27;4.40;26.90
5459;DHT22;2752;49.992;8.422;2022-12-07T02:39:59;4.50;31.40
5459;DHT22;2752;49.992;8.422;2022-12-07T02:42:30;4.50;29.60
5459;DHT22;2752;49.992;8.422;2022-12-07T02:45:01;4.50;28.30
5459;DHT22;2752;49.992;8.422;2022-12-07T02:47:29;4.50;29.00
5459;DHT22;2752;49.992;8.422;2022-12-07T02:49:56;4.60;27.60
5459;DHT22;2752;49.992;8.422;2022-12-07T02:52:23;4.60;27.00
5459;DHT22;2752;49.992;8.422;2022-12-07T02:54:49;4.60;27.60
5459;DHT22;2752;49.992;8.422;2022-12-07T02:57:34;4.60;29.60
5459;DHT22;2752;49.992;8.422;2022-12-07T03:00:08;4.70;24.60
5459;DHT22;2752;49.992;8.422;2022-12-07T03:02:41;4.70;25.30
5459;DHT22;2752;49.992;8.422;2022-12-07T03:05:20;4.60;26.20
5459;DHT22;2752;49.992;8.422;2022-12-07T03:07:57;4.70;25.00
5459;DHT22;2752;49.992;8.422;2022-12-07T03:10:32;4.70;22.90
5459;DHT22;2752;49.992;8.422;2022-12-07T03:13:05;4.70;19.60
5459;DHT22;2752;49.992;8.422;2022-12-07T03:15:39;4.60;21.80
5459;DHT22;2752;49.992;8.422;2022-12-07T03:18:08;4.60;22.20
5459;DHT22;2752;49.992;8.422;2022-12-07T03:20:36;4.50;26.50
5459;DHT22;2752;49.992;8.422;2022-12-07T03:23:04;4.50;29.80
5459;DHT22;2752;49.992;8.422;2022-12-07T03:25:36;4.50;28.50
5459;DHT22;2752;49.992;8.422;2022-12-07T03:28:06;4.40;30.90
5459;DHT22;2752;49.992;8.422;2022-12-07T03:30:39;4.40;32.60
5459;DHT22;2752;49.992;8.422;2022-12-07T03:33:12;4.40;36.10
5459;DHT22;2752;49.992;8.422;2022-12-07T03:35:43;4.40;36.80
5459;DHT22;2752;49.992;8.422;2022-12-07T03:38:15;4.40;37.30
5459;DHT22;2752;49.992;8.422;2022-12-07T03:40:46;4.40;38.40
5459;DHT22;2752;49.992;8.422;2022-12-07T03:43:16;4.40;40.00
5459;DHT22;2752;49.992;8.422;2022-12-07T03:45:49;4.50;41.30
5459;DHT22;2752;49.992;8.422;2022-12-07T03:48:24;4.60;37.70
5459;DHT22;2752;49.992;8.422;2022-12-07T03:50:55;4.70;34.40
5459;DHT22;2752;49.992;8.422;2022-12-07T03:53:26;4.70;30.60
5459;DHT22;2752;49.992;8.422;2022-12-07T03:55:57;4.70;28.30
5459;DHT22;2752;49.992;8.422;2022-12-07T03:58:25;4.80;25.30
5459;DHT22;2752;49.992;8.422;2022-12-07T04:00:54;4.70;23.30
5459;DHT22;2752;49.992;8.422;2022-12-07T04:03:21;4.80;24.40
5459;DHT22;2752;49.992;8.422;2022-12-07T04:05:48;4.80;23.60
5459;DHT22;2752;49.992;8.422;2022-12-07T04:08:15;4.80;21.70
5459;DHT22;2752;49.992;8.422;2022-12-07T04:10:41;4.90;21.20
5459;DHT22;2752;49.992;8.422;2022-12-07T04:13:08;4.90;19.00
5459;DHT22;2752;49.992;8.422;2022-12-07T04:15:35;4.90;16.60
5459;DHT22;2752;49.992;8.422;2022-12-07T04:18:03;4.90;16.50
5459;DHT22;2752;49.992;8.422;2022-12-07T04:20:29;4.90;15.60
5459;DHT22;2752;49.992;8.422;2022-12-07T04:22:56;4.90;16.00
5459;DHT22;2752;49.992;8.422;2022-12-07T04:25:23;4.90;15.90
5459;DHT22;2752;49.992;8.422;2022-12-07T04:27:49;4.90;16.50
5459;DHT22;2752;49.992;8.422;2022-12-07T04:30:16;4.90;16.20
5459;DHT22;2752;49.992;8.422;2022-12-07T04:32:43;4.90;15.60
5459;DHT22;2752;49.992;8.422;2022-12-07T04:35:11;5.00;15.10
5459;DHT22;2752;49.992;8.422;2022-12-07T04:37:38;5.00;15.70
5459;DHT22;2752;49.992;8.422;2022-12-07T04:40:06;5.00;15.60
5459;DHT22;2752;49.992;8.422;2022-12-07T04:42:34;4.90;14.50
5459;DHT22;2752;49.992;8.422;2022-12-07T04:45:00;4.90;15.50
5459;DHT22;2752;49.992;8.422;2022-12-07T04:47:27;5.00;14.50
5459;DHT22;2752;49.992;8.422;2022-12-07T04:49:54;4.90;15.50
5459;DHT22;2752;49.992;8.422;2022-12-07T04:52:22;5.00;17.50
5459;DHT22;2752;49.992;8.422;2022-12-07T04:54:49;4.90;17.30
5459;DHT22;2752;49.992;8.422;2022-12-07T04:57:15;4.90;18.40
5459;DHT22;2752;49.992;8.422;2022-12-07T04:59:42;5.00;17.70
5459;DHT22;2752;49.992;8.422;2022-12-07T05:02:09;5.10;15.30
5459;DHT22;2752;49.992;8.422;2022-12-07T05:04:35;5.00;15.10
5459;DHT22;2752;49.992;8.422;2022-12-07T05:07:02;4.90;17.80
5459;DHT22;2752;49.992;8.422;2022-12-07T05:09:30;4.90;21.20
5459;DHT22;2752;49.992;8.422;2022-12-07T05:11:57;4.80;22.50
5459;DHT22;2752;49.992;8.422;2022-12-07T05:14:23;4.90;22.00
5459;DHT22;2752;49.992;8.422;2022-12-07T05:16:51;4.90;21.60
5459;DHT22;2752;49.992;8.422;2022-12-07T05:19:19;5.00;20.50
5459;DHT22;2752;49.992;8.422;2022-12-07T05:21:46;4.90;20.00
5459;DHT22;2752;49.992;8.422;2022-12-07T05:24:14;5.00;21.90
5459;DHT22;2752;49.992;8.422;2022-12-07T05:26:43;5.10;20.40
5459;DHT22;2752;49.992;8.422;2022-12-07T05:29:11;5.10;17.50
5459;DHT22;2752;49.992;8.422;2022-12-07T05:31:38;5.20;16.60
5459;DHT22;2752;49.992;8.422;2022-12-07T05:34:05;5.20;15.30
5459;DHT22;2752;49.992;8.422;2022-12-07T05:36:32;5.20;15.60
5459;DHT22;2752;49.992;8.422;2022-12-07T05:38:59;5.20;15.50
5459;DHT22;2752;49.992;8.422;2022-12-07T05:41:25;5.20;16.60
5459;DHT22;2752;49.992;8.422;2022-12-07T05:44:11;5.20;16.50
5459;DHT22;2752;49.992;8.422;2022-12-07T05:46:38;5.10;17.10
5459;DHT22;2752;49.992;8.422;2022-12-07T05:49:04;5.20;17.00
5459;DHT22;2752;49.992;8.422;2022-12-07T05:51:31;5.20;16.10
5459;DHT22;2752;49.992;8.422;2022-12-07T05:53:58;5.10;17.00
5459;DHT22;2752;49.992;8.422;2022-12-07T05:56:25;5.10;20.00
5459;DHT22;2752;49.992;8.422;2022-12-07T05:58:52;5.20;21.20
5459;DHT22;2752;49.992;8.422;2022-12-07T06:01:37;5.20;20.60
5459;DHT22;2752;49.992;8.422;2022-12-07T06:04:04;5.20;18.50
5459;DHT22;2752;49.992;8.422;2022-12-07T06:06:31;5.20;19.80
5459;DHT22;2752;49.992;8.422;2022-12-07T06:08:58;5.20;19.20
5459;DHT22;2752;49.992;8.422;2022-12-07T06:11:25;5.30;18.10
5459;DHT22;2752;49.992;8.422;2022-12-07T06:14:09;5.30;15.20
5459;DHT22;2752;49.992;8.422;2022-12-07T06:16:37;5.30;13.50
5459;DHT22;2752;49.992;8.422;2022-12-07T06:19:03;5.30;12.30
5459;DHT22;2752;49.992;8.422;2022-12-07T06:21:30;5.30;10.70
5459;DHT22;2752;49.992;8.422;2022-12-07T06:23:57;5.40;10.70
5459;DHT22;2752;49.992;8.422;2022-12-07T06:26:24;5.40;10.60
5459;DHT22;2752;49.992;8.422;2022-12-07T06:28:50;5.40;9.90
5459;DHT22;2752;49.992;8.422;2022-12-07T06:31:17;5.40;9.10
5459;DHT22;2752;49.992;8.422;2022-12-07T06:33:45;5.40;8.10
5459;DHT22;2752;49.992;8.422;2022-12-07T06:36:12;5.40;8.00
5459;DHT22;2752;49.992;8.422;2022-12-07T06:38:39;5.40;8.50
5459;DHT22;2752;49.992;8.422;2022-12-07T06:41:05;5.40;6.90
5459;DHT22;2752;49.992;8.422;2022-12-07T06:43:32;5.40;7.60
5459;DHT22;2752;49.992;8.422;2022-12-07T06:45:59;5.40;6.30
5459;DHT22;2752;49.992;8.422;2022-12-07T06:48:26;5.40;7.10
5459;DHT22;2752;49.992;8.422;2022-12-07T06:50:54;5.40;5.80
5459;DHT22;2752;49.992;8.422;2022-12-07T06:53:21;5.40;7.70
5459;DHT22;2752;49.992;8.422;2022-12-07T06:55:47;5.40;6.00
5459;DHT22;2752;49.992;8.422;2022-12-07T06:58:14;5.50;7.30
5459;DHT22;2752;49.992;8.422;2022-12-07T07:00:41;5.50;7.20
5459;DHT22;2752;49.992;8.422;2022-12-07T07:03:07;5.50;6.60
5459;DHT22;2752;49.992;8.422;2022-12-07T07:05:34;5.50;7.20
5459;DHT22;2752;49.992;8.422;2022-12-07T07:08:03;5.50;7.50
5459;DHT22;2752;49.992;8.422;2022-12-07T07:10:30;5.60;6.60
5459;DHT22;2752;49.992;8.422;2022-12-07T07:12:57;5.50;7.00
5459;DHT22;2752;49.992;8.422;2022-12-07T07:15:23;5.50;5.20
5459;DHT22;2752;49.992;8.422;2022-12-07T07:17:50;5.50;7.20
5459;DHT22;2752;49.992;8.422;2022-12-07T07:20:17;5.40;8.90
5459;DHT22;2752;49.992;8.422;2022-12-07T07:22:44;5.40;9.20
5459;DHT22;2752;49.992;8.422;2022-12-07T07:25:12;5.40;8.20
5459;DHT22;2752;49.992;8.422;2022-12-07T07:27:38;5.50;8.70
5459;DHT22;2752;49.992;8.422;2022-12-07T07:30:06;5.50;7.20
5459;DHT22;2752;49.992;8.422;2022-12-07T07:32:33;5.50;8.00
5459;DHT22;2752;49.992;8.422;2022-12-07T07:35:00;5.50;7.10
5459;DHT22;2752;49.992;8.422;2022-12-07T07:37:27;5.40;7.20
5459;DHT22;2752;49.992;8.422;2022-12-07T07:39:54;5.50;8.50
5459;DHT22;2752;49.992;8.422;2022-12-07T07:42:22;5.50;8.70
5459;DHT22;2752;49.992;8.422;2022-12-07T07:44:49;5.50;9.00
5459;DHT22;2752;49.992;8.422;2022-12-07T07:47:16;5.50;9.30
5459;DHT22;2752;49.992;8.422;2022-12-07T07:49:43;5.50;9.10
5459;DHT22;2752;49.992;8.422;2022-12-07T07:52:11;5.40;8.60
5459;DHT22;2752;49.992;8.422;2022-12-07T07:54:37;5.50;8.90
5459;DHT22;2752;49.992;8.422;2022-12-07T07:57:04;5.50;9.50
5459;DHT22;2752;49.992;8.422;2022-12-07T07:59:32;5.50;9.20
5459;DHT22;2752;49.992;8.422;2022-12-07T08:01:59;5.60;8.70
5459;DHT22;2752;49.992;8.422;2022-12-07T08:04:26;5.60;7.40
5459;DHT22;2752;49.992;8.422;2022-12-07T08:06:52;5.50;7.60
5459;DHT22;2752;49.992;8.422;2022-12-07T08:09:19;5.50;8.70
5459;DHT22;2752;49.992;8.422;2022-12-07T08:11:46;5.40;11.30
5459;DHT22;2752;49.992;8.422;2022-12-07T08:14:12;5.40;10.40
5459;DHT22;2752;49.992;8.422;2022-12-07T08:16:40;5.50;11.70
5459;DHT22;2752;49.992;8.422;2022-12-07T08:19:07;5.60;8.90
5459;DHT22;2752;49.992;8.422;2022-12-07T08:21:34;5.60;8.20
5459;DHT22;2752;49.992;8.422;2022-12-07T08:24:00;5.60;8.00
5459;DHT22;2752;49.992;8.422;2022-12-07T08:26:27;5.50;8.30
5459;DHT22;2752;49.992;8.422;2022-12-07T08:28:54;5.60;8.40
5459;DHT22;2752;49.992;8.422;2022-12-07T08:31:20;5.60;8.40
5459;DHT22;2752;49.992;8.422;2022-12-07T08:33:49;5.60;9.60
5459;DHT22;2752;49.992;8.422;2022-12-07T08:36:16;5.60;8.30
5459;DHT22;2752;49.992;8.422;2022-12-07T08:38:43;5.70;7.80
5459;DHT22;2752;49.992;8.422;2022-12-07T08:41:10;5.70;6.70
5459;DHT22;2752;49.992;8.422;2022-12-07T08:46:08;5.80;5.20
5459;DHT22;2752;49.992;8.422;2022-12-07T08:48:38;5.70;5.70
5459;DHT22;2752;49.992;8.422;2022-12-07T08:51:08;5.70;5.20
5459;DHT22;2752;49.992;8.422;2022-12-07T08:53:35;5.70;5.10
5459;DHT22;2752;49.992;8.422;2022-12-07T08:56:04;5.70;5.00
5459;DHT22;2752;49.992;8.422;2022-12-07T08:58:31;5.70;6.30
5459;DHT22;2752;49.992;8.422;2022-12-07T09:00:58;5.70;5.90
5459;DHT22;2752;49.992;8.422;2022-12-07T09:03:25;5.70;5.30
5459;DHT22;2752;49.992;8.422;2022-12-07T09:05:52;5.80;5.70
5459;DHT22;2752;49.992;8.422;2022-12-07T09:08:21;5.70;5.30
5459;DHT22;2752;49.992;8.422;2022-12-07T09:10:51;5.60;8.30
5459;DHT22;2752;49.992;8.422;2022-12-07T09:13:18;5.50;11.40
5459;DHT22;2752;49.992;8.422;2022-12-07T09:15:45;5.40;13.20
5459;DHT22;2752;49.992;8.422;2022-12-07T09:18:11;5.40;14.00
5459;DHT22;2752;49.992;8.422;2022-12-07T09:20:38;5.40;14.60
5459;DHT22;2752;49.992;8.422;2022-12-07T09:23:05;5.30;14.70
5459;DHT22;2752;49.992;8.422;2022-12-07T09:25:34;5.30;17.00
5459;DHT22;2752;49.992;8.422;2022-12-07T09:28:01;5.20;18.30
5459;DHT22;2752;49.992;8.422;2022-12-07T09:30:28;5.20;19.10
5459;DHT22;2752;49.992;8.422;2022-12-07T09:32:55;5.20;20.20
5459;DHT22;2752;49.992;8.422;2022-12-07T09:35:23;5.20;20.70
5459;DHT22;2752;49.992;8.422;2022-12-07T09:37:50;4.70;21.30
5459;DHT22;2752;49.992;8.422;2022-12-07T09:40:20;5.10;22.20
5459;DHT22;2752;49.992;8.422;2022-12-07T09:42:52;5.10;23.00
5459;DHT22;2752;49.992;8.422;2022-12-07T09:45:24;5.00;24.40
5459;DHT22;2752;49.992;8.422;2022-12-07T09:47:51;5.00;24.90
5459;DHT22;2752;49.992;8.422;2022-12-07T09:50:21;5.10;25.90
5459;DHT22;2752;49.992;8.422;2022-12-07T09:52:49;5.20;27.80
5459;DHT22;2752;49.992;8.422;2022-12-07T09:55:19;5.20;24.60
5459;DHT22;2752;49.992;8.422;2022-12-07T09:57:48;5.30;25.20
5459;DHT22;2752;49.992;8.422;2022-12-07T10:00:19;5.40;21.00
5459;DHT22;2752;49.992;8.422;2022-12-07T10:02:50;5.30;21.50
5459;DHT22;2752;49.992;8.422;2022-12-07T10:05:23;5.30;23.00
5459;DHT22;2752;49.992;8.422;2022-12-07T10:07:51;5.40;24.70
5459;DHT22;2752;49.992;8.422;2022-12-07T10:10:22;5.40;25.70
5459;DHT22;2752;49.992;8.422;2022-12-07T10:12:58;5.40;27.90
5459;DHT22;2752;49.992;8.422;2022-12-07T10:15:42;5.60;25.80
5459;DHT22;2752;49.992;8.422;2022-12-07T10:18:21;5.70;25.90
5459;DHT22;2752;49.992;8.422;2022-12-07T10:21:02;5.80;25.00
5459;DHT22;2752;49.992;8.422;2022-12-07T10:23:29;5.90;25.00
5459;DHT22;2752;49.992;8.422;2022-12-07T10:25:56;6.10;23.50
5459;DHT22;2752;49.992;8.422;2022-12-07T10:28:23;6.20;20.30
5459;DHT22;2752;49.992;8.422;2022-12-07T10:30:57;6.40;13.00
5459;DHT22;2752;49.992;8.422;2022-12-07T10:33:29;6.60;7.70
5459;DHT22;2752;49.992;8.422;2022-12-07T10:35:57;6.60;3.80
5459;DHT22;2752;49.992;8.422;2022-12-07T10:38:25;6.60;2.90
5459;DHT22;2752;49.992;8.422;2022-12-07T10:41:04;6.80;1.00
5459;DHT22;2752;49.992;8.422;2022-12-07T10:43:31;7.00;1.00
5459;DHT22;2752;49.992;8.422;2022-12-07T10:46:38;6.90;1.00
5459;DHT22;2752;49.992;8.422;2022-12-07T10:49:25;7.10;1.00
5459;DHT22;2752;49.992;8.422;2022-12-07T10:52:03;7.20;1.00
5459;DHT22;2752;49.992;8.422;2022-12-07T10:54:38;7.40;1.00
5459;DHT22;2752;49.992;8.422;2022-12-07T10:57:25;7.50;1.00
5459;DHT22;2752;49.992;8.422;2022-12-07T11:00:02;7.60;1.00
5459;DHT22;2752;49.992;8.422;2022-12-07T11:03:09;7.70;1.00
5459;DHT22;2752;49.992;8.422;2022-12-07T11:05:46;7.80;1.00
5459;DHT22;2752;49.992;8.422;2022-12-07T11:08:23;7.80;1.00
5459;DHT22;2752;49.992;8.422;2022-12-07T11:10:59;7.80;1.00
5459;DHT22;2752;49.992;8.422;2022-12-07T11:13:31;7.90;1.00
5459;DHT22;2752;49.992;8.422;2022-12-07T11:19:11;7.80;1.00
5459;DHT22;2752;49.992;8.422;2022-12-07T11:21:48;8.10;1.00
5459;DHT22;2752;49.992;8.422;2022-12-07T11:24:17;7.90;1.00
5459;DHT22;2752;49.992;8.422;2022-12-07T11:26:57;7.80;1.00
5459;DHT22;2752;49.992;8.422;2022-12-07T11:29:54;7.70;1.00
5459;DHT22;2752;49.992;8.422;2022-12-07T11:32:50;7.60;1.00
5459;DHT22;2752;49.992;8.422;2022-12-07T11:35:24;7.60;1.00
5459;DHT22;2752;49.992;8.422;2022-12-07T11:37:59;7.80;1.00
5459;DHT22;2752;49.992;8.422;2022-12-07T11:40:29;7.90;1.00
5459;DHT22;2752;49.992;8.422;2022-12-07T11:43:04;8.00;1.00
5459;DHT22;2752;49.992;8.422;2022-12-07T11:45:34;8.00;1.00
5459;DHT22;2752;49.992;8.422;2022-12-07T11:48:03;7.90;1.00
5459;DHT22;2752;49.992;8.422;2022-12-07T11:50:37;7.70;1.00
5459;DHT22;2752;49.992;8.422;2022-12-07T11:53:15;7.70;1.00
5459;DHT22;2752;49.992;8.422;2022-12-07T11:55:49;7.70;1.00
5459;DHT22;2752;49.992;8.422;2022-12-07T11:58:33;7.80;1.00
5459;DHT22;2752;49.992;8.422;2022-12-07T12:01:14;7.90;1.00
5459;DHT22;2752;49.992;8.422;2022-12-07T12:03:45;7.90;1.00
5459;DHT22;2752;49.992;8.422;2022-12-07T12:06:13;7.90;1.00
5459;DHT22;2752;49.992;8.422;2022-12-07T12:08:43;7.90;1.00
5459;DHT22;2752;49.992;8.422;2022-12-07T12:11:19;7.80;1.00
5459;DHT22;2752;49.992;8.422;2022-12-07T12:14:08;7.70;1.00
5459;DHT22;2752;49.992;8.422;2022-12-07T12:19:34;7.60;1.00
5459;DHT22;2752;49.992;8.422;2022-12-07T12:22:11;7.50;1.00
5459;DHT22;2752;49.992;8.422;2022-12-07T12:24:40;7.40;1.00
5459;DHT22;2752;49.992;8.422;2022-12-07T12:27:09;7.40;1.00
5459;DHT22;2752;49.992;8.422;2022-12-07T12:29:42;7.30;1.00
5459;DHT22;2752;49.992;8.422;2022-12-07T12:32:16;7.20;1.00
5459;DHT22;2752;49.992;8.422;2022-12-07T12:34:59;7.20;1.00
5459;DHT22;2752;49.992;8.422;2022-12-07T12:37:45;7.40;1.00
5459;DHT22;2752;49.992;8.422;2022-12-07T12:40:40;7.80;1.00
5459;DHT22;2752;49.992;8.422;2022-12-07T12:46:38;8.20;1.00
5459;DHT22;2752;49.992;8.422;2022-12-07T12:49:38;8.30;1.00
5459;DHT22;2752;49.992;8.422;2022-12-07T12:55:18;8.50;1.00
5459;DHT22;2752;49.992;8.422;2022-12-07T12:57:48;8.60;1.00
5459;DHT22;2752;49.992;8.422;2022-12-07T13:00:36;8.80;1.00
5459;DHT22;2752;49.992;8.422;2022-12-07T13:03:03;8.60;1.00
5459;DHT22;2752;49.992;8.422;2022-12-07T13:05:30;8.50;1.00
5459;DHT22;2752;49.992;8.422;2022-12-07T13:08:00;8.60;1.00
5459;DHT22;2752;49.992;8.422;2022-12-07T13:10:40;8.80;1.00
5459;DHT22;2752;49.992;8.422;2022-12-07T13:13:29;8.60;1.00
5459;DHT22;2752;49.992;8.422;2022-12-07T13:18:57;8.50;1.00
5459;DHT22;2752;49.992;8.422;2022-12-07T13:21:51;8.50;1.00
5459;DHT22;2752;49.992;8.422;2022-12-07T13:24:18;8.50;1.00
5459;DHT22;2752;49.992;8.422;2022-12-07T13:26:45;9.20;1.00
5459;DHT22;2752;49.992;8.422;2022-12-07T13:29:14;8.70;1.00
5459;DHT22;2752;49.992;8.422;2022-12-07T13:31:42;8.70;1.00
5459;DHT22;2752;49.992;8.422;2022-12-07T13:34:31;8.60;1.00
5459;DHT22;2752;49.992;8.422;2022-12-07T13:36:58;8.30;1.00
5459;DHT22;2752;49.992;8.422;2022-12-07T13:39:27;8.20;1.00
5459;DHT22;2752;49.992;8.422;2022-12-07T13:41:55;8.10;1.00
5459;DHT22;2752;49.992;8.422;2022-12-07T13:44:27;8.30;1.00
5459;DHT22;2752;49.992;8.422;2022-12-07T13:47:01;8.30;1.00
5459;DHT22;2752;49.992;8.422;2022-12-07T13:49:32;8.10;1.00
5459;DHT22;2752;49.992;8.422;2022-12-07T13:52:14;8.10;1.00
5459;DHT22;2752;49.992;8.422;2022-12-07T13:54:44;7.90;1.00
5459;DHT22;2752;49.992;8.422;2022-12-07T13:57:11;7.90;1.00
5459;DHT22;2752;49.992;8.422;2022-12-07T13:59:38;7.80;1.00
5459;DHT22;2752;49.992;8.422;2022-12-07T14:02:18;7.80;1.00
5459;DHT22;2752;49.992;8.422;2022-12-07T14:04:48;7.70;1.00
5459;DHT22;2752;49.992;8.422;2022-12-07T14:07:21;7.60;1.00
5459;DHT22;2752;49.992;8.422;2022-12-07T14:09:57;7.60;1.00
5459;DHT22;2752;49.992;8.422;2022-12-07T14:12:24;7.50;1.00
5459;DHT22;2752;49.992;8.422;2022-12-07T14:14:52;7.30;1.00
5459;DHT22;2752;49.992;8.422;2022-12-07T14:17:21;7.20;1.00
5459;DHT22;2752;49.992;8.422;2022-12-07T14:19:51;7.20;1.00
5459;DHT22;2752;49.992;8.422;2022-12-07T14:22:29;7.20;1.00
5459;DHT22;2752;49.992;8.422;2022-12-07T14:25:16;7.20;1.00
5459;DHT22;2752;49.992;8.422;2022-12-07T14:27:54;7.00;1.00
5459;DHT22;2752;49.992;8.422;2022-12-07T14:30:24;6.80;1.00
5459;DHT22;2752;49.992;8.422;2022-12-07T14:32:54;6.70;1.00
5459;DHT22;2752;49.992;8.422;2022-12-07T14:35:22;6.60;1.00
5459;DHT22;2752;49.992;8.422;2022-12-07T14:37:49;6.70;1.00
5459;DHT22;2752;49.992;8.422;2022-12-07T14:40:18;6.50;1.00
5459;DHT22;2752;49.992;8.422;2022-12-07T14:42:47;6.40;1.00
5459;DHT22;2752;49.992;8.422;2022-12-07T14:45:16;6.40;1.00
5459;DHT22;2752;49.992;8.422;2022-12-07T14:47:44;6.30;1.20
5459;DHT22;2752;49.992;8.422;2022-12-07T14:50:12;6.40;2.20
5459;DHT22;2752;49.992;8.422;2022-12-07T14:52:42;6.30;1.00
5459;DHT22;2752;49.992;8.422;2022-12-07T14:55:14;6.20;1.00
5459;DHT22;2752;49.992;8.422;2022-12-07T14:57:42;6.20;1.00
5459;DHT22;2752;49.992;8.422;2022-12-07T15:00:13;6.20;1.00
5459;DHT22;2752;49.992;8.422;2022-12-07T15:02:41;6.10;2.00
5459;DHT22;2752;49.992;8.422;2022-12-07T15:05:08;6.20;4.20
5459;DHT22;2752;49.992;8.422;2022-12-07T15:07:35;6.30;1.00
5459;DHT22;2752;49.992;8.422;2022-12-07T15:10:04;6.30;1.00
5459;DHT22;2752;49.992;8.422;2022-12-07T15:12:31;6.30;1.00
5459;DHT22;2752;49.992;8.422;2022-12-07T15:14:58;6.40;1.00
5459;DHT22;2752;49.992;8.422;2022-12-07T15:17:26;6.40;1.00
5459;DHT22;2752;49.992;8.422;2022-12-07T15:19:53;6.40;1.00
5459;DHT22;2752;49.992;8.422;2022-12-07T15:22:19;6.30;1.00
5459;DHT22;2752;49.992;8.422;2022-12-07T15:24:46;6.20;1.00
5459;DHT22;2752;49.992;8.422;2022-12-07T15:27:14;6.30;1.00
5459;DHT22;2752;49.992;8.422;2022-12-07T15:29:41;6.20;1.00
5459;DHT22;2752;49.992;8.422;2022-12-07T15:32:09;6.30;1.00
5459;DHT22;2752;49.992;8.422;2022-12-07T15:34:35;6.30;1.00
5459;DHT22;2752;49.992;8.422;2022-12-07T15:37:02;6.30;1.00
5459;DHT22;2752;49.992;8.422;2022-12-07T15:39:29;6.40;1.00
5459;DHT22;2752;49.992;8.422;2022-12-07T15:41:56;6.20;1.00
5459;DHT22;2752;49.992;8.422;2022-12-07T15:44:24;6.20;1.00
5459;DHT22;2752;49.992;8.422;2022-12-07T15:47:08;6.20;1.00
5459;DHT22;2752;49.992;8.422;2022-12-07T15:49:35;6.20;1.00
5459;DHT22;2752;49.992;8.422;2022-12-07T15:52:02;6.20;2.60
5459;DHT22;2752;49.992;8.422;2022-12-07T15:54:30;6.00;5.30
5459;DHT22;2752;49.992;8.422;2022-12-07T15:56:57;5.90;5.50
5459;DHT22;2752;49.992;8.422;2022-12-07T15:59:27;6.00;8.30
5459;DHT22;2752;49.992;8.422;2022-12-07T16:01:54;6.00;7.50
5459;DHT22;2752;49.992;8.422;2022-12-07T16:04:21;6.00;4.40
5459;DHT22;2752;49.992;8.422;2022-12-07T16:06:47;5.80;5.90
5459;DHT22;2752;49.992;8.422;2022-12-07T16:09:15;5.80;9.10
5459;DHT22;2752;49.992;8.422;2022-12-07T16:11:42;5.70;11.20
5459;DHT22;2752;49.992;8.422;2022-12-07T16:14:09;5.70;12.80
5459;DHT22;2752;49.992;8.422;2022-12-07T16:16:37;5.30;15.20
5459;DHT22;2752;49.992;8.422;2022-12-07T16:19:05;5.70;16.80
5459;DHT22;2752;49.992;8.422;2022-12-07T16:21:33;5.60;14.90
5459;DHT22;2752;49.992;8.422;2022-12-07T16:24:01;5.60;15.10
5459;DHT22;2752;49.992;8.422;2022-12-07T16:26:28;5.60;14.80
5459;DHT22;2752;49.992;8.422;2022-12-07T16:28:55;5.80;8.90
5459;DHT22;2752;49.992;8.422;2022-12-07T16:31:24;5.80;3.80
5459;DHT22;2752;49.992;8.422;2022-12-07T16:33:55;5.80;2.50
5459;DHT22;2752;49.992;8.422;2022-12-07T16:36:22;5.80;2.50
5459;DHT22;2752;49.992;8.422;2022-12-07T16:38:51;5.80;2.50
5459;DHT22;2752;49.992;8.422;2022-12-07T16:41:17;5.80;3.80
5459;DHT22;2752;49.992;8.422;2022-12-07T16:43:44;5.80;2.90
5459;DHT22;2752;49.992;8.422;2022-12-07T16:46:11;5.80;9.10
5459;DHT22;2752;49.992;8.422;2022-12-07T16:48:39;5.60;9.10
5459;DHT22;2752;49.992;8.422;2022-12-07T16:51:10;5.70;11.40
5459;DHT22;2752;49.992;8.422;2022-12-07T16:53:38;5.60;18.20
5459;DHT22;2752;49.992;8.422;2022-12-07T16:56:10;5.70;37.80
5459;DHT22;2752;49.992;8.422;2022-12-07T16:58:37;5.50;41.90
5459;DHT22;2752;49.992;8.422;2022-12-07T17:01:09;5.50;44.90
5459;DHT22;2752;49.992;8.422;2022-12-07T17:03:36;5.50;41.20
5459;DHT22;2752;49.992;8.422;2022-12-07T17:06:03;5.40;38.30
5459;DHT22;2752;49.992;8.422;2022-12-07T17:08:31;5.30;38.50
5459;DHT22;2752;49.992;8.422;2022-12-07T17:10:58;5.30;40.10
5459;DHT22;2752;49.992;8.422;2022-12-07T17:13:24;5.20;41.60